sensor_id;sensor_type;location;lat;lon;timestamp;temperature;humidity
80220;DHT22;70247;37.958;23.722;2023-05-29T00:09:38;21.70;51.60
80220;DHT22;70247;37.958;23.722;2023-05-29T00:13:12;21.60;53.50
80220;DHT22;70247;37.958;23.722;2023-05-29T00:16:50;21.60;50.80
80220;DHT22;70247;37.958;23.722;2023-05-29T00:20:45;21.60;51.60
80220;DHT22;70247;37.958;23.722;2023-05-29T00:24:23;21.60;51.70
80220;DHT22;70247;37.958;23.722;2023-05-29T00:27:22;21.60;51.90
80220;DHT22;70247;37.958;23.722;2023-05-29T00:30:52;21.60;52.00
80220;DHT22;70247;37.958;23.722;2023-05-29T00:34:43;21.60;52.60
80220;DHT22;70247;37.958;23.722;2023-05-29T00:41:21;21.50;52.00
80220;DHT22;70247;37.958;23.722;2023-05-29T00:47:55;21.50;52.30
80220;DHT22;70247;37.958;23.722;2023-05-29T00:51:23;21.50;52.10
80220;DHT22;70247;37.958;23.722;2023-05-29T00:54:33;21.40;53.90
80220;DHT22;70247;37.958;23.722;2023-05-29T01:01:30;21.40;51.50
80220;DHT22;70247;37.958;23.722;2023-05-29T01:08:17;21.40;53.10
80220;DHT22;70247;37.958;23.722;2023-05-29T01:15:18;21.40;52.50
80220;DHT22;70247;37.958;23.722;2023-05-29T01:32:51;21.20;54.30
80220;DHT22;70247;37.958;23.722;2023-05-29T01:36:27;21.20;53.20
80220;DHT22;70247;37.958;23.722;2023-05-29T01:39:47;21.20;53.60
80220;DHT22;70247;37.958;23.722;2023-05-29T01:42:45;21.20;54.20
80220;DHT22;70247;37.958;23.722;2023-05-29T01:45:41;21.20;52.50
80220;DHT22;70247;37.958;23.722;2023-05-29T01:48:51;21.20;53.60
80220;DHT22;70247;37.958;23.722;2023-05-29T01:51:44;21.20;53.10
80220;DHT22;70247;37.958;23.722;2023-05-29T02:02:07;21.20;52.20
80220;DHT22;70247;37.958;23.722;2023-05-29T02:08:52;21.20;52.50
80220;DHT22;70247;37.958;23.722;2023-05-29T02:15:41;21.20;52.40
80220;DHT22;70247;37.958;23.722;2023-05-29T02:19:12;21.20;53.70
80220;DHT22;70247;37.958;23.722;2023-05-29T02:22:50;21.20;53.30
80220;DHT22;70247;37.958;23.722;2023-05-29T02:26:00;21.20;53.10
80220;DHT22;70247;37.958;23.722;2023-05-29T02:29:05;21.20;52.50
80220;DHT22;70247;37.958;23.722;2023-05-29T02:32:44;21.20;52.60
80220;DHT22;70247;37.958;23.722;2023-05-29T02:36:15;21.10;53.30
80220;DHT22;70247;37.958;23.722;2023-05-29T02:39:20;21.10;53.90
80220;DHT22;70247;37.958;23.722;2023-05-29T02:42:19;21.10;53.90
80220;DHT22;70247;37.958;23.722;2023-05-29T02:45:45;21.10;54.10
80220;DHT22;70247;37.958;23.722;2023-05-29T02:49:02;21.10;54.30
80220;DHT22;70247;37.958;23.722;2023-05-29T02:55:40;21.00;53.60
80220;DHT22;70247;37.958;23.722;2023-05-29T02:59:10;21.10;54.70
80220;DHT22;70247;37.958;23.722;2023-05-29T03:06:13;21.10;54.20
80220;DHT22;70247;37.958;23.722;2023-05-29T03:09:43;20.90;53.70
80220;DHT22;70247;37.958;23.722;2023-05-29T03:16:35;21.00;53.70
80220;DHT22;70247;37.958;23.722;2023-05-29T03:19:37;21.10;53.90
80220;DHT22;70247;37.958;23.722;2023-05-29T03:26:19;21.10;53.60
80220;DHT22;70247;37.958;23.722;2023-05-29T03:29:47;21.20;53.50
80220;DHT22;70247;37.958;23.722;2023-05-29T03:36:28;21.20;54.20
80220;DHT22;70247;37.958;23.722;2023-05-29T03:43:28;21.20;54.20
80220;DHT22;70247;37.958;23.722;2023-05-29T03:47:11;21.10;54.20
80220;DHT22;70247;37.958;23.722;2023-05-29T03:50:40;21.20;54.40
80220;DHT22;70247;37.958;23.722;2023-05-29T03:53:27;21.10;54.20
80220;DHT22;70247;37.958;23.722;2023-05-29T03:55:57;21.10;54.60
80220;DHT22;70247;37.958;23.722;2023-05-29T03:59:31;21.10;53.90
80220;DHT22;70247;37.958;23.722;2023-05-29T04:02:30;21.20;54.20
80220;DHT22;70247;37.958;23.722;2023-05-29T04:05:58;21.20;54.00
80220;DHT22;70247;37.958;23.722;2023-05-29T04:09:44;21.20;54.30
80220;DHT22;70247;37.958;23.722;2023-05-29T04:13:02;21.30;53.60
80220;DHT22;70247;37.958;23.722;2023-05-29T04:15:56;21.30;54.50
80220;DHT22;70247;37.958;23.722;2023-05-29T04:22:15;21.40;53.80
80220;DHT22;70247;37.958;23.722;2023-05-29T04:25:28;21.50;54.50
80220;DHT22;70247;37.958;23.722;2023-05-29T04:32:57;21.60;55.10
80220;DHT22;70247;37.958;23.722;2023-05-29T04:43:15;21.80;54.70
80220;DHT22;70247;37.958;23.722;2023-05-29T04:56:56;22.10;52.50
80220;DHT22;70247;37.958;23.722;2023-05-29T05:00:35;22.20;53.50
80220;DHT22;70247;37.958;23.722;2023-05-29T05:04:07;22.20;53.40
80220;DHT22;70247;37.958;23.722;2023-05-29T05:10:43;22.30;53.10
80220;DHT22;70247;37.958;23.722;2023-05-29T05:17:33;22.20;53.70
80220;DHT22;70247;37.958;23.722;2023-05-29T05:28:23;22.00;53.20
80220;DHT22;70247;37.958;23.722;2023-05-29T05:32:04;21.90;53.60
80220;DHT22;70247;37.958;23.722;2023-05-29T05:35:33;21.90;52.70
80220;DHT22;70247;37.958;23.722;2023-05-29T05:42:14;21.90;54.20
80220;DHT22;70247;37.958;23.722;2023-05-29T05:45:33;21.80;52.70
80220;DHT22;70247;37.958;23.722;2023-05-29T05:48:41;21.90;54.20
80220;DHT22;70247;37.958;23.722;2023-05-29T05:52:04;21.90;54.20
80220;DHT22;70247;37.958;23.722;2023-05-29T05:58:36;22.10;55.50
80220;DHT22;70247;37.958;23.722;2023-05-29T06:08:35;22.40;53.60
80220;DHT22;70247;37.958;23.722;2023-05-29T06:15:48;22.80;53.40
80220;DHT22;70247;37.958;23.722;2023-05-29T06:19:39;23.00;51.70
80220;DHT22;70247;37.958;23.722;2023-05-29T06:23:03;23.20;51.70
80220;DHT22;70247;37.958;23.722;2023-05-29T06:26:21;23.20;52.60
80220;DHT22;70247;37.958;23.722;2023-05-29T06:29:44;23.20;49.40
80220;DHT22;70247;37.958;23.722;2023-05-29T06:40:03;23.50;48.60
80220;DHT22;70247;37.958;23.722;2023-05-29T06:46:50;23.80;47.90
80220;DHT22;70247;37.958;23.722;2023-05-29T06:57:12;23.90;47.80
80220;DHT22;70247;37.958;23.722;2023-05-29T07:03:53;24.00;46.90
80220;DHT22;70247;37.958;23.722;2023-05-29T07:06:18;24.20;47.60
80220;DHT22;70247;37.958;23.722;2023-05-29T07:08:44;24.30;45.50
80220;DHT22;70247;37.958;23.722;2023-05-29T07:11:10;24.50;46.00
80220;DHT22;70247;37.958;23.722;2023-05-29T07:13:36;24.60;45.90
80220;DHT22;70247;37.958;23.722;2023-05-29T07:16:01;24.60;45.70
80220;DHT22;70247;37.958;23.722;2023-05-29T07:18:27;24.70;46.30
80220;DHT22;70247;37.958;23.722;2023-05-29T07:20:56;24.80;45.50
80220;DHT22;70247;37.958;23.722;2023-05-29T07:23:23;24.70;45.10
80220;DHT22;70247;37.958;23.722;2023-05-29T07:25:49;24.60;47.10
80220;DHT22;70247;37.958;23.722;2023-05-29T07:28:15;24.60;46.00
80220;DHT22;70247;37.958;23.722;2023-05-29T07:30:41;24.80;46.00
80220;DHT22;70247;37.958;23.722;2023-05-29T07:33:07;25.00;45.50
80220;DHT22;70247;37.958;23.722;2023-05-29T07:35:32;25.30;44.60
80220;DHT22;70247;37.958;23.722;2023-05-29T07:37:59;25.50;44.20
80220;DHT22;70247;37.958;23.722;2023-05-29T07:40:25;25.70;43.60
80220;DHT22;70247;37.958;23.722;2023-05-29T07:42:51;25.90;42.30
80220;DHT22;70247;37.958;23.722;2023-05-29T07:45:17;25.90;42.10
80220;DHT22;70247;37.958;23.722;2023-05-29T07:47:43;26.00;41.50
80220;DHT22;70247;37.958;23.722;2023-05-29T07:50:09;26.00;41.80
80220;DHT22;70247;37.958;23.722;2023-05-29T07:52:36;26.00;41.60
80220;DHT22;70247;37.958;23.722;2023-05-29T07:55:01;25.90;42.10
80220;DHT22;70247;37.958;23.722;2023-05-29T07:57:28;26.00;41.90
80220;DHT22;70247;37.958;23.722;2023-05-29T07:59:54;26.10;41.30
80220;DHT22;70247;37.958;23.722;2023-05-29T08:02:20;26.00;41.40
80220;DHT22;70247;37.958;23.722;2023-05-29T08:04:46;26.00;40.90
80220;DHT22;70247;37.958;23.722;2023-05-29T08:07:12;26.00;41.50
80220;DHT22;70247;37.958;23.722;2023-05-29T08:09:38;26.20;40.70
80220;DHT22;70247;37.958;23.722;2023-05-29T08:12:04;26.40;40.20
80220;DHT22;70247;37.958;23.722;2023-05-29T08:14:32;26.40;40.70
80220;DHT22;70247;37.958;23.722;2023-05-29T08:16:58;26.40;41.60
80220;DHT22;70247;37.958;23.722;2023-05-29T08:19:28;26.40;41.10
80220;DHT22;70247;37.958;23.722;2023-05-29T08:21:53;26.30;41.10
80220;DHT22;70247;37.958;23.722;2023-05-29T08:24:19;26.60;42.00
80220;DHT22;70247;37.958;23.722;2023-05-29T08:26:45;27.00;40.60
80220;DHT22;70247;37.958;23.722;2023-05-29T08:29:11;27.30;39.40
80220;DHT22;70247;37.958;23.722;2023-05-29T08:31:37;27.40;39.50
80220;DHT22;70247;37.958;23.722;2023-05-29T08:34:03;27.40;40.00
80220;DHT22;70247;37.958;23.722;2023-05-29T08:36:29;27.40;38.90
80220;DHT22;70247;37.958;23.722;2023-05-29T08:38:54;27.70;38.40
80220;DHT22;70247;37.958;23.722;2023-05-29T08:44:18;28.90;37.00
80220;DHT22;70247;37.958;23.722;2023-05-29T08:46:45;29.20;36.30
80220;DHT22;70247;37.958;23.722;2023-05-29T08:49:16;29.20;36.70
80220;DHT22;70247;37.958;23.722;2023-05-29T08:51:43;29.40;36.10
80220;DHT22;70247;37.958;23.722;2023-05-29T08:54:14;29.10;35.40
80220;DHT22;70247;37.958;23.722;2023-05-29T08:56:40;30.20;34.60
80220;DHT22;70247;37.958;23.722;2023-05-29T08:59:07;32.40;31.90
80220;DHT22;70247;37.958;23.722;2023-05-29T09:01:34;34.30;29.20
80220;DHT22;70247;37.958;23.722;2023-05-29T09:04:01;35.40;28.10
80220;DHT22;70247;37.958;23.722;2023-05-29T09:06:27;36.40;27.60
80220;DHT22;70247;37.958;23.722;2023-05-29T09:08:53;37.20;25.90
80220;DHT22;70247;37.958;23.722;2023-05-29T09:11:19;38.00;25.20
80220;DHT22;70247;37.958;23.722;2023-05-29T09:13:46;38.50;24.90
80220;DHT22;70247;37.958;23.722;2023-05-29T09:16:12;38.00;24.80
80220;DHT22;70247;37.958;23.722;2023-05-29T09:18:38;36.90;26.20
80220;DHT22;70247;37.958;23.722;2023-05-29T09:21:07;36.00;27.10
80220;DHT22;70247;37.958;23.722;2023-05-29T09:23:34;34.30;28.40
80220;DHT22;70247;37.958;23.722;2023-05-29T09:26:02;32.80;29.20
80220;DHT22;70247;37.958;23.722;2023-05-29T09:28:30;31.60;32.30
80220;DHT22;70247;37.958;23.722;2023-05-29T09:30:57;30.60;33.70
80220;DHT22;70247;37.958;23.722;2023-05-29T09:33:23;30.10;33.20
80220;DHT22;70247;37.958;23.722;2023-05-29T09:35:50;29.40;34.60
80220;DHT22;70247;37.958;23.722;2023-05-29T09:38:20;28.90;35.20
80220;DHT22;70247;37.958;23.722;2023-05-29T09:40:45;28.50;36.20
80220;DHT22;70247;37.958;23.722;2023-05-29T09:43:17;28.10;35.90
80220;DHT22;70247;37.958;23.722;2023-05-29T09:45:48;28.20;36.40
80220;DHT22;70247;37.958;23.722;2023-05-29T09:48:22;28.70;35.40
80220;DHT22;70247;37.958;23.722;2023-05-29T09:50:49;28.60;36.50
80220;DHT22;70247;37.958;23.722;2023-05-29T09:53:21;28.30;36.90
80220;DHT22;70247;37.958;23.722;2023-05-29T09:55:52;27.70;37.60
80220;DHT22;70247;37.958;23.722;2023-05-29T09:58:18;27.60;38.40
80220;DHT22;70247;37.958;23.722;2023-05-29T10:00:44;27.50;37.20
80220;DHT22;70247;37.958;23.722;2023-05-29T10:03:11;27.30;37.80
80220;DHT22;70247;37.958;23.722;2023-05-29T10:05:49;27.00;38.70
80220;DHT22;70247;37.958;23.722;2023-05-29T10:08:18;26.80;38.00
80220;DHT22;70247;37.958;23.722;2023-05-29T10:10:49;27.70;37.60
80220;DHT22;70247;37.958;23.722;2023-05-29T10:13:18;29.00;34.80
80220;DHT22;70247;37.958;23.722;2023-05-29T10:15:50;29.10;34.60
80220;DHT22;70247;37.958;23.722;2023-05-29T10:18:31;29.00;35.50
80220;DHT22;70247;37.958;23.722;2023-05-29T10:20:58;28.90;35.60
80220;DHT22;70247;37.958;23.722;2023-05-29T10:23:27;28.60;35.40
80220;DHT22;70247;37.958;23.722;2023-05-29T10:25:58;28.30;36.80
80220;DHT22;70247;37.958;23.722;2023-05-29T10:28:27;28.30;38.00
80220;DHT22;70247;37.958;23.722;2023-05-29T10:36:17;29.40;33.20
80220;DHT22;70247;37.958;23.722;2023-05-29T10:38:46;29.30;33.90
80220;DHT22;70247;37.958;23.722;2023-05-29T10:41:39;29.10;35.00
80220;DHT22;70247;37.958;23.722;2023-05-29T10:44:38;29.00;34.50
80220;DHT22;70247;37.958;23.722;2023-05-29T10:47:05;28.70;36.30
80220;DHT22;70247;37.958;23.722;2023-05-29T10:49:31;28.30;36.80
80220;DHT22;70247;37.958;23.722;2023-05-29T10:51:58;27.90;38.30
80220;DHT22;70247;37.958;23.722;2023-05-29T10:54:27;27.60;38.60
80220;DHT22;70247;37.958;23.722;2023-05-29T10:57:00;27.60;39.10
80220;DHT22;70247;37.958;23.722;2023-05-29T10:59:26;27.90;39.00
80220;DHT22;70247;37.958;23.722;2023-05-29T11:01:57;28.40;38.00
80220;DHT22;70247;37.958;23.722;2023-05-29T11:06:52;29.40;36.40
80220;DHT22;70247;37.958;23.722;2023-05-29T11:09:35;29.70;36.30
80220;DHT22;70247;37.958;23.722;2023-05-29T11:12:24;29.90;35.90
80220;DHT22;70247;37.958;23.722;2023-05-29T11:20:09;30.40;34.10
80220;DHT22;70247;37.958;23.722;2023-05-29T11:25:26;29.90;35.00
80220;DHT22;70247;37.958;23.722;2023-05-29T11:27:52;29.40;35.00
80220;DHT22;70247;37.958;23.722;2023-05-29T11:30:19;29.30;36.50
80220;DHT22;70247;37.958;23.722;2023-05-29T11:32:46;29.20;36.70
80220;DHT22;70247;37.958;23.722;2023-05-29T11:35:15;28.70;37.10
80220;DHT22;70247;37.958;23.722;2023-05-29T11:37:44;28.20;37.50
80220;DHT22;70247;37.958;23.722;2023-05-29T11:40:12;28.00;37.70
80220;DHT22;70247;37.958;23.722;2023-05-29T11:42:42;27.90;38.20
80220;DHT22;70247;37.958;23.722;2023-05-29T11:45:16;27.60;39.10
80220;DHT22;70247;37.958;23.722;2023-05-29T11:48:00;27.60;38.20
80220;DHT22;70247;37.958;23.722;2023-05-29T11:50:27;27.50;37.40
80220;DHT22;70247;37.958;23.722;2023-05-29T11:52:55;27.60;37.80
80220;DHT22;70247;37.958;23.722;2023-05-29T11:55:22;27.70;39.30
80220;DHT22;70247;37.958;23.722;2023-05-29T11:58:05;27.90;38.80
80220;DHT22;70247;37.958;23.722;2023-05-29T12:00:33;28.10;38.20
80220;DHT22;70247;37.958;23.722;2023-05-29T12:02:59;28.10;38.80
80220;DHT22;70247;37.958;23.722;2023-05-29T12:05:41;27.80;38.80
80220;DHT22;70247;37.958;23.722;2023-05-29T12:08:09;27.50;39.00
80220;DHT22;70247;37.958;23.722;2023-05-29T12:10:35;27.40;40.40
80220;DHT22;70247;37.958;23.722;2023-05-29T12:13:01;27.20;40.40
80220;DHT22;70247;37.958;23.722;2023-05-29T12:15:27;27.10;40.60
80220;DHT22;70247;37.958;23.722;2023-05-29T12:17:54;27.10;40.80
80220;DHT22;70247;37.958;23.722;2023-05-29T12:20:23;27.30;42.50
80220;DHT22;70247;37.958;23.722;2023-05-29T12:22:50;27.40;40.40
80220;DHT22;70247;37.958;23.722;2023-05-29T12:25:17;27.50;40.00
80220;DHT22;70247;37.958;23.722;2023-05-29T12:27:47;27.50;40.00
80220;DHT22;70247;37.958;23.722;2023-05-29T12:30:21;27.30;39.50
80220;DHT22;70247;37.958;23.722;2023-05-29T12:32:49;26.90;40.10
80220;DHT22;70247;37.958;23.722;2023-05-29T12:35:21;26.80;40.60
80220;DHT22;70247;37.958;23.722;2023-05-29T12:40:23;26.60;40.50
80220;DHT22;70247;37.958;23.722;2023-05-29T12:42:58;26.80;38.30
80220;DHT22;70247;37.958;23.722;2023-05-29T12:45:31;27.10;39.40
80220;DHT22;70247;37.958;23.722;2023-05-29T12:47:59;27.30;38.60
80220;DHT22;70247;37.958;23.722;2023-05-29T12:50:34;27.50;38.50
80220;DHT22;70247;37.958;23.722;2023-05-29T12:53:05;27.50;38.80
80220;DHT22;70247;37.958;23.722;2023-05-29T12:55:38;27.80;39.00
80220;DHT22;70247;37.958;23.722;2023-05-29T12:58:05;27.80;37.60
80220;DHT22;70247;37.958;23.722;2023-05-29T13:00:33;27.60;37.70
80220;DHT22;70247;37.958;23.722;2023-05-29T13:02:59;27.50;38.10
80220;DHT22;70247;37.958;23.722;2023-05-29T13:05:25;27.30;39.40
80220;DHT22;70247;37.958;23.722;2023-05-29T13:07:51;27.40;39.90
80220;DHT22;70247;37.958;23.722;2023-05-29T13:10:20;27.40;40.20
80220;DHT22;70247;37.958;23.722;2023-05-29T13:12:47;27.50;39.40
80220;DHT22;70247;37.958;23.722;2023-05-29T13:15:14;27.50;40.00
80220;DHT22;70247;37.958;23.722;2023-05-29T13:17:40;27.40;39.50
80220;DHT22;70247;37.958;23.722;2023-05-29T13:20:09;27.20;39.50
80220;DHT22;70247;37.958;23.722;2023-05-29T13:22:36;27.00;38.70
80220;DHT22;70247;37.958;23.722;2023-05-29T13:25:02;26.80;39.10
80220;DHT22;70247;37.958;23.722;2023-05-29T13:27:32;26.80;39.20
80220;DHT22;70247;37.958;23.722;2023-05-29T13:30:00;26.70;40.10
80220;DHT22;70247;37.958;23.722;2023-05-29T13:32:26;26.60;40.20
80220;DHT22;70247;37.958;23.722;2023-05-29T13:34:52;26.60;40.70
80220;DHT22;70247;37.958;23.722;2023-05-29T13:37:18;26.50;40.70
80220;DHT22;70247;37.958;23.722;2023-05-29T13:39:43;26.50;40.10
80220;DHT22;70247;37.958;23.722;2023-05-29T13:42:09;26.40;40.80
80220;DHT22;70247;37.958;23.722;2023-05-29T13:44:36;26.50;41.60
80220;DHT22;70247;37.958;23.722;2023-05-29T13:47:02;26.50;41.20
80220;DHT22;70247;37.958;23.722;2023-05-29T13:49:28;26.50;40.70
80220;DHT22;70247;37.958;23.722;2023-05-29T13:51:53;26.60;40.10
80220;DHT22;70247;37.958;23.722;2023-05-29T13:54:19;26.60;39.80
80220;DHT22;70247;37.958;23.722;2023-05-29T13:56:45;26.60;39.80
80220;DHT22;70247;37.958;23.722;2023-05-29T13:59:11;26.50;39.70
80220;DHT22;70247;37.958;23.722;2023-05-29T14:01:36;26.60;40.30
80220;DHT22;70247;37.958;23.722;2023-05-29T14:04:02;26.50;40.60
80220;DHT22;70247;37.958;23.722;2023-05-29T14:06:28;26.50;39.90
80220;DHT22;70247;37.958;23.722;2023-05-29T14:08:54;26.50;39.50
80220;DHT22;70247;37.958;23.722;2023-05-29T14:11:21;26.40;39.80
80220;DHT22;70247;37.958;23.722;2023-05-29T14:13:47;26.30;40.90
80220;DHT22;70247;37.958;23.722;2023-05-29T14:16:13;26.30;39.90
80220;DHT22;70247;37.958;23.722;2023-05-29T14:18:40;26.20;41.50
80220;DHT22;70247;37.958;23.722;2023-05-29T14:21:07;26.10;41.80
80220;DHT22;70247;37.958;23.722;2023-05-29T14:23:33;26.00;41.70
80220;DHT22;70247;37.958;23.722;2023-05-29T14:26:01;26.10;42.30
80220;DHT22;70247;37.958;23.722;2023-05-29T14:28:27;26.00;42.80
80220;DHT22;70247;37.958;23.722;2023-05-29T14:30:52;25.80;43.50
80220;DHT22;70247;37.958;23.722;2023-05-29T14:33:18;25.70;43.90
80220;DHT22;70247;37.958;23.722;2023-05-29T14:35:44;25.50;44.40
80220;DHT22;70247;37.958;23.722;2023-05-29T14:38:10;25.30;44.40
80220;DHT22;70247;37.958;23.722;2023-05-29T14:40:35;25.20;44.50
80220;DHT22;70247;37.958;23.722;2023-05-29T14:43:02;25.10;45.10
80220;DHT22;70247;37.958;23.722;2023-05-29T14:45:28;25.00;45.00
80220;DHT22;70247;37.958;23.722;2023-05-29T14:47:54;24.90;46.40
80220;DHT22;70247;37.958;23.722;2023-05-29T14:50:20;24.80;48.10
80220;DHT22;70247;37.958;23.722;2023-05-29T14:52:46;24.90;48.90
80220;DHT22;70247;37.958;23.722;2023-05-29T14:55:13;24.80;48.70
80220;DHT22;70247;37.958;23.722;2023-05-29T14:57:41;24.70;49.20
80220;DHT22;70247;37.958;23.722;2023-05-29T15:00:07;24.80;48.70
80220;DHT22;70247;37.958;23.722;2023-05-29T15:02:33;24.70;49.40
80220;DHT22;70247;37.958;23.722;2023-05-29T15:04:59;24.80;48.90
80220;DHT22;70247;37.958;23.722;2023-05-29T15:07:25;24.80;48.60
80220;DHT22;70247;37.958;23.722;2023-05-29T15:09:51;24.90;48.70
80220;DHT22;70247;37.958;23.722;2023-05-29T15:12:17;24.90;49.00
80220;DHT22;70247;37.958;23.722;2023-05-29T15:14:43;25.00;49.00
80220;DHT22;70247;37.958;23.722;2023-05-29T15:17:09;25.00;48.40
80220;DHT22;70247;37.958;23.722;2023-05-29T15:19:34;25.10;48.00
80220;DHT22;70247;37.958;23.722;2023-05-29T15:22:00;25.20;48.20
80220;DHT22;70247;37.958;23.722;2023-05-29T15:24:26;25.40;48.00
80220;DHT22;70247;37.958;23.722;2023-05-29T15:26:51;25.60;47.20
80220;DHT22;70247;37.958;23.722;2023-05-29T15:29:17;25.80;47.80
80220;DHT22;70247;37.958;23.722;2023-05-29T15:31:43;26.00;46.20
80220;DHT22;70247;37.958;23.722;2023-05-29T15:34:09;26.20;44.50
80220;DHT22;70247;37.958;23.722;2023-05-29T15:36:34;26.30;44.20
80220;DHT22;70247;37.958;23.722;2023-05-29T15:39:04;26.30;43.50
80220;DHT22;70247;37.958;23.722;2023-05-29T15:41:30;26.30;44.60
80220;DHT22;70247;37.958;23.722;2023-05-29T15:43:56;26.30;44.10
80220;DHT22;70247;37.958;23.722;2023-05-29T15:46:26;26.10;43.10
80220;DHT22;70247;37.958;23.722;2023-05-29T15:48:51;26.10;44.10
80220;DHT22;70247;37.958;23.722;2023-05-29T15:51:17;26.10;43.10
80220;DHT22;70247;37.958;23.722;2023-05-29T15:53:43;26.20;43.40
80220;DHT22;70247;37.958;23.722;2023-05-29T15:56:09;26.30;44.20
80220;DHT22;70247;37.958;23.722;2023-05-29T15:58:34;26.40;44.40
80220;DHT22;70247;37.958;23.722;2023-05-29T16:01:01;26.40;43.50
80220;DHT22;70247;37.958;23.722;2023-05-29T16:03:28;26.30;43.50
80220;DHT22;70247;37.958;23.722;2023-05-29T16:05:54;26.40;43.10
80220;DHT22;70247;37.958;23.722;2023-05-29T16:08:20;26.30;42.50
80220;DHT22;70247;37.958;23.722;2023-05-29T16:10:46;26.30;42.60
80220;DHT22;70247;37.958;23.722;2023-05-29T16:13:12;26.20;43.10
80220;DHT22;70247;37.958;23.722;2023-05-29T16:15:38;26.00;44.10
80220;DHT22;70247;37.958;23.722;2023-05-29T16:18:04;26.00;44.40
80220;DHT22;70247;37.958;23.722;2023-05-29T16:20:30;25.80;45.30
80220;DHT22;70247;37.958;23.722;2023-05-29T16:22:56;25.70;46.10
80220;DHT22;70247;37.958;23.722;2023-05-29T16:25:22;25.60;46.60
80220;DHT22;70247;37.958;23.722;2023-05-29T16:27:48;25.50;47.50
80220;DHT22;70247;37.958;23.722;2023-05-29T16:30:14;25.40;47.50
80220;DHT22;70247;37.958;23.722;2023-05-29T16:32:40;25.40;46.80
80220;DHT22;70247;37.958;23.722;2023-05-29T16:35:06;25.30;47.60
80220;DHT22;70247;37.958;23.722;2023-05-29T16:37:32;25.30;47.90
80220;DHT22;70247;37.958;23.722;2023-05-29T16:39:58;25.20;47.50
80220;DHT22;70247;37.958;23.722;2023-05-29T16:42:24;25.10;46.90
80220;DHT22;70247;37.958;23.722;2023-05-29T16:44:50;24.90;47.10
80220;DHT22;70247;37.958;23.722;2023-05-29T16:47:16;24.80;48.10
80220;DHT22;70247;37.958;23.722;2023-05-29T16:49:42;24.70;49.20
80220;DHT22;70247;37.958;23.722;2023-05-29T16:52:08;24.70;49.60
80220;DHT22;70247;37.958;23.722;2023-05-29T16:54:34;24.60;50.00
80220;DHT22;70247;37.958;23.722;2023-05-29T16:57:06;24.50;50.10
80220;DHT22;70247;37.958;23.722;2023-05-29T16:59:32;24.60;50.30
80220;DHT22;70247;37.958;23.722;2023-05-29T17:01:58;24.50;50.30
80220;DHT22;70247;37.958;23.722;2023-05-29T17:04:23;24.40;50.90
80220;DHT22;70247;37.958;23.722;2023-05-29T17:06:49;24.30;50.70
80220;DHT22;70247;37.958;23.722;2023-05-29T17:09:15;24.30;52.60
80220;DHT22;70247;37.958;23.722;2023-05-29T17:11:41;24.30;51.70
80220;DHT22;70247;37.958;23.722;2023-05-29T17:14:06;24.20;52.40
80220;DHT22;70247;37.958;23.722;2023-05-29T17:16:32;24.10;53.00
80220;DHT22;70247;37.958;23.722;2023-05-29T17:18:58;24.00;53.30
80220;DHT22;70247;37.958;23.722;2023-05-29T17:21:23;23.90;53.00
80220;DHT22;70247;37.958;23.722;2023-05-29T17:23:49;23.80;53.50
80220;DHT22;70247;37.958;23.722;2023-05-29T17:26:21;23.70;53.70
80220;DHT22;70247;37.958;23.722;2023-05-29T17:28:46;23.60;54.20
80220;DHT22;70247;37.958;23.722;2023-05-29T17:31:13;23.60;53.80
80220;DHT22;70247;37.958;23.722;2023-05-29T17:33:38;23.50;54.30
80220;DHT22;70247;37.958;23.722;2023-05-29T17:36:04;23.40;54.70
80220;DHT22;70247;37.958;23.722;2023-05-29T17:38:30;23.40;55.40
80220;DHT22;70247;37.958;23.722;2023-05-29T17:40:56;23.40;55.70
80220;DHT22;70247;37.958;23.722;2023-05-29T17:43:24;23.40;55.40
80220;DHT22;70247;37.958;23.722;2023-05-29T17:45:50;23.30;56.30
80220;DHT22;70247;37.958;23.722;2023-05-29T17:48:18;23.20;57.60
80220;DHT22;70247;37.958;23.722;2023-05-29T17:50:45;23.10;57.90
80220;DHT22;70247;37.958;23.722;2023-05-29T17:53:11;23.10;58.40
80220;DHT22;70247;37.958;23.722;2023-05-29T17:55:37;23.00;58.80
80220;DHT22;70247;37.958;23.722;2023-05-29T17:58:03;23.00;58.70
80220;DHT22;70247;37.958;23.722;2023-05-29T18:00:29;23.00;58.90
80220;DHT22;70247;37.958;23.722;2023-05-29T18:02:55;23.00;59.00
80220;DHT22;70247;37.958;23.722;2023-05-29T18:05:20;23.00;59.40
80220;DHT22;70247;37.958;23.722;2023-05-29T18:07:46;23.00;59.40
80220;DHT22;70247;37.958;23.722;2023-05-29T18:10:12;22.90;59.50
80220;DHT22;70247;37.958;23.722;2023-05-29T18:12:44;22.90;59.50
80220;DHT22;70247;37.958;23.722;2023-05-29T18:15:10;22.90;59.40
80220;DHT22;70247;37.958;23.722;2023-05-29T18:17:36;22.90;59.30
80220;DHT22;70247;37.958;23.722;2023-05-29T18:20:02;22.90;59.30
80220;DHT22;70247;37.958;23.722;2023-05-29T18:22:28;22.90;59.40
80220;DHT22;70247;37.958;23.722;2023-05-29T18:24:53;23.00;59.00
80220;DHT22;70247;37.958;23.722;2023-05-29T18:27:20;23.00;58.70
80220;DHT22;70247;37.958;23.722;2023-05-29T18:29:45;23.00;58.40
80220;DHT22;70247;37.958;23.722;2023-05-29T18:32:13;22.90;58.00
80220;DHT22;70247;37.958;23.722;2023-05-29T18:34:39;22.90;58.60
80220;DHT22;70247;37.958;23.722;2023-05-29T18:37:04;22.90;58.30
80220;DHT22;70247;37.958;23.722;2023-05-29T18:39:30;22.90;58.00
80220;DHT22;70247;37.958;23.722;2023-05-29T18:41:56;22.80;58.10
80220;DHT22;70247;37.958;23.722;2023-05-29T18:44:22;22.80;58.20
80220;DHT22;70247;37.958;23.722;2023-05-29T18:46:47;22.80;58.80
80220;DHT22;70247;37.958;23.722;2023-05-29T18:49:13;22.80;58.90
80220;DHT22;70247;37.958;23.722;2023-05-29T18:51:39;22.70;59.30
80220;DHT22;70247;37.958;23.722;2023-05-29T18:54:05;22.60;59.60
80220;DHT22;70247;37.958;23.722;2023-05-29T18:56:33;22.50;59.90
80220;DHT22;70247;37.958;23.722;2023-05-29T18:58:58;22.60;60.00
80220;DHT22;70247;37.958;23.722;2023-05-29T19:01:24;22.60;60.10
80220;DHT22;70247;37.958;23.722;2023-05-29T19:03:50;22.60;60.00
80220;DHT22;70247;37.958;23.722;2023-05-29T19:06:17;22.60;59.80
80220;DHT22;70247;37.958;23.722;2023-05-29T19:08:43;22.60;59.80
80220;DHT22;70247;37.958;23.722;2023-05-29T19:11:09;22.70;59.80
80220;DHT22;70247;37.958;23.722;2023-05-29T19:13:37;22.70;59.70
80220;DHT22;70247;37.958;23.722;2023-05-29T19:16:02;22.60;59.40
80220;DHT22;70247;37.958;23.722;2023-05-29T19:18:28;22.60;59.00
80220;DHT22;70247;37.958;23.722;2023-05-29T19:20:54;22.70;58.80